createdAt,value
2022-08-31T00:00:02.804Z,20.90
2022-08-31T00:02:29.569Z,20.90
2022-08-31T00:04:57.744Z,20.80
2022-08-31T00:07:25.169Z,20.90
2022-08-31T00:09:52.089Z,20.80
2022-08-31T00:12:19.106Z,20.90
2022-08-31T00:14:46.241Z,20.90
2022-08-31T00:17:13.511Z,20.80
2022-08-31T00:19:40.246Z,20.90
2022-08-31T00:22:08.412Z,20.80
2022-08-31T00:24:35.193Z,20.80
2022-08-31T00:27:02.022Z,20.90
2022-08-31T00:29:28.743Z,20.80
2022-08-31T00:31:55.573Z,20.90
2022-08-31T00:34:22.378Z,20.80
2022-08-31T00:36:49.147Z,20.80
2022-08-31T00:39:17.224Z,20.80
2022-08-31T00:41:44.337Z,20.80
2022-08-31T00:44:11.601Z,20.80
2022-08-31T00:46:41.142Z,20.80
2022-08-31T00:49:10.646Z,20.80
2022-08-31T00:51:42.242Z,20.80
2022-08-31T00:54:11.387Z,20.70
2022-08-31T00:56:40.722Z,20.70
2022-08-31T00:59:07.599Z,20.80
2022-08-31T01:01:34.468Z,20.80
2022-08-31T01:04:01.466Z,20.80
2022-08-31T01:06:28.530Z,20.80
2022-08-31T01:08:58.043Z,20.70
2022-08-31T01:11:25.493Z,20.60
2022-08-31T01:13:54.234Z,20.60
2022-08-31T01:16:24.966Z,20.60
2022-08-31T01:18:52.924Z,20.60
2022-08-31T01:21:26.865Z,20.60
2022-08-31T01:23:58.979Z,20.70
2022-08-31T01:26:27.879Z,20.70
2022-08-31T01:28:57.443Z,20.70
2022-08-31T01:31:26.989Z,20.60
2022-08-31T01:33:54.446Z,20.60
2022-08-31T01:36:22.613Z,20.60
2022-08-31T01:38:52.878Z,20.60
2022-08-31T01:41:22.372Z,20.60
2022-08-31T01:43:49.141Z,20.60
2022-08-31T01:46:16.090Z,20.60
2022-08-31T01:48:44.346Z,20.60
2022-08-31T01:51:13.177Z,20.60
2022-08-31T01:53:41.349Z,20.60
2022-08-31T01:56:11.927Z,20.60
2022-08-31T01:58:40.085Z,20.60
2022-08-31T02:01:32.773Z,20.60
2022-08-31T02:03:53.897Z,20.60
2022-08-31T02:06:24.242Z,20.50
2022-08-31T02:08:51.088Z,20.60
2022-08-31T02:11:17.965Z,20.40
2022-08-31T02:13:46.039Z,20.50
2022-08-31T02:16:12.875Z,20.50
2022-08-31T02:18:39.685Z,20.40
2022-08-31T02:21:06.626Z,20.50
2022-08-31T02:23:33.382Z,20.60
2022-08-31T02:26:00.216Z,20.50
2022-08-31T02:28:27.095Z,20.40
2022-08-31T02:30:55.190Z,20.50
2022-08-31T02:33:22.814Z,20.50
2022-08-31T02:35:53.496Z,20.50
2022-08-31T02:38:21.209Z,20.40
2022-08-31T02:40:49.057Z,20.30
2022-08-31T02:43:24.471Z,20.40
2022-08-31T02:45:53.666Z,20.40
2022-08-31T02:48:22.370Z,20.40
2022-08-31T02:50:51.424Z,20.50
2022-08-31T02:53:21.766Z,20.50
2022-08-31T02:55:49.234Z,20.40
2022-08-31T02:58:20.707Z,20.40
2022-08-31T03:00:50.956Z,20.30
2022-08-31T03:03:18.447Z,20.30
2022-08-31T03:05:46.671Z,20.30
2022-08-31T03:08:13.490Z,20.30
2022-08-31T03:10:40.760Z,20.20
2022-08-31T03:13:07.693Z,20.20
2022-08-31T03:15:34.581Z,20.20
2022-08-31T03:18:01.384Z,20.30
2022-08-31T03:20:33.690Z,20.30
2022-08-31T03:23:03.110Z,20.30
2022-08-31T03:25:31.517Z,20.30
2022-08-31T03:27:58.653Z,20.30
2022-08-31T03:30:27.537Z,20.20
2022-08-31T03:32:57.285Z,20.30
2022-08-31T03:35:30.132Z,20.20
2022-08-31T03:37:57.093Z,20.20
2022-08-31T03:40:25.390Z,20.30
2022-08-31T03:42:52.227Z,20.30
2022-08-31T03:45:19.092Z,20.30
2022-08-31T03:47:45.876Z,20.30
2022-08-31T03:50:12.733Z,20.20
2022-08-31T03:52:39.927Z,20.20
2022-08-31T03:55:08.085Z,20.20
2022-08-31T03:57:36.270Z,20.20
2022-08-31T04:00:07.085Z,20.10
2022-08-31T04:02:37.796Z,20.10
2022-08-31T04:05:05.285Z,20.10
2022-08-31T04:07:42.129Z,20.10
2022-08-31T04:10:11.036Z,20.00
2022-08-31T04:12:39.161Z,20.00
2022-08-31T04:15:07.489Z,20.00
2022-08-31T04:17:34.788Z,20.00
2022-08-31T04:20:01.548Z,20.10
2022-08-31T04:22:28.701Z,20.20
2022-08-31T04:24:55.568Z,20.00
2022-08-31T04:27:22.371Z,20.00
2022-08-31T04:29:50.465Z,20.00
2022-08-31T04:32:17.281Z,20.10
2022-08-31T04:34:44.129Z,20.10
2022-08-31T04:37:10.894Z,20.10
2022-08-31T04:39:50.913Z,20.10
2022-08-31T04:42:18.072Z,20.00
2022-08-31T04:44:44.854Z,20.00
2022-08-31T04:47:13.014Z,20.00
2022-08-31T04:49:40.127Z,20.00
2022-08-31T04:52:07.008Z,20.00
2022-08-31T04:54:33.824Z,20.00
2022-08-31T04:57:00.576Z,20.00
2022-08-31T04:59:27.360Z,19.90
2022-08-31T05:01:54.638Z,19.90
2022-08-31T05:04:23.027Z,20.00
2022-08-31T05:06:50.146Z,19.90
2022-08-31T05:09:19.274Z,20.00
2022-08-31T05:11:46.796Z,20.00
2022-08-31T05:14:13.697Z,20.00
2022-08-31T05:16:41.428Z,19.90
2022-08-31T05:19:08.841Z,20.00
2022-08-31T05:21:38.682Z,20.00
2022-08-31T05:24:08.075Z,20.00
2022-08-31T05:26:38.053Z,19.90
2022-08-31T05:29:09.782Z,19.90
2022-08-31T05:31:37.108Z,19.90
2022-08-31T05:34:04.771Z,19.90
2022-08-31T05:36:32.132Z,19.90
2022-08-31T05:39:01.456Z,20.00
2022-08-31T05:41:29.680Z,20.00
2022-08-31T05:43:56.572Z,20.00
2022-08-31T05:46:23.669Z,20.00
2022-08-31T05:48:50.497Z,20.00
2022-08-31T05:51:18.908Z,20.00
2022-08-31T05:53:46.556Z,20.00
2022-08-31T05:56:19.205Z,20.00
2022-08-31T05:58:47.330Z,20.00
2022-08-31T06:01:15.224Z,20.00
2022-08-31T06:03:42.643Z,20.00
2022-08-31T06:06:09.438Z,19.90
2022-08-31T06:08:36.441Z,20.00
2022-08-31T06:11:03.769Z,20.00
2022-08-31T06:13:32.065Z,20.00
2022-08-31T06:16:01.790Z,20.00
2022-08-31T06:18:28.570Z,20.00
2022-08-31T06:21:02.484Z,20.00
2022-08-31T06:23:29.297Z,20.00
2022-08-31T06:26:02.571Z,20.00
2022-08-31T06:28:30.753Z,20.00
2022-08-31T06:30:57.622Z,20.00
2022-08-31T06:33:24.353Z,20.00
2022-08-31T06:35:51.140Z,20.00
2022-08-31T06:38:17.895Z,20.00
2022-08-31T06:40:44.699Z,20.10
2022-08-31T06:43:11.552Z,20.00
2022-08-31T06:45:40.109Z,20.00
2022-08-31T06:48:06.852Z,20.00
2022-08-31T06:50:33.583Z,20.00
2022-08-31T06:53:00.593Z,20.10
2022-08-31T06:55:27.431Z,20.00
2022-08-31T06:57:54.188Z,20.10
2022-08-31T07:00:21.109Z,20.10
2022-08-31T07:02:57.250Z,20.00
2022-08-31T07:05:24.962Z,20.10
2022-08-31T07:07:51.937Z,20.10
2022-08-31T07:10:18.730Z,20.10
2022-08-31T07:12:45.465Z,20.10
2022-08-31T07:15:12.273Z,20.20
2022-08-31T07:17:39.016Z,20.20
2022-08-31T07:20:08.674Z,20.20
2022-08-31T07:22:35.425Z,20.10
2022-08-31T07:25:02.350Z,20.20
2022-08-31T07:27:29.104Z,20.10
2022-08-31T07:29:55.812Z,20.10
2022-08-31T07:32:22.633Z,20.20
2022-08-31T07:34:56.290Z,20.20
2022-08-31T07:37:26.795Z,20.20
2022-08-31T07:39:54.332Z,20.10
2022-08-31T07:42:26.798Z,20.10
2022-08-31T07:44:54.647Z,20.10
2022-08-31T07:47:22.853Z,20.20
2022-08-31T07:49:52.344Z,20.30
2022-08-31T07:52:21.254Z,20.30
2022-08-31T07:54:49.953Z,20.30
2022-08-31T07:57:17.428Z,20.30
2022-08-31T07:59:44.664Z,20.30
2022-08-31T08:02:16.611Z,20.20
2022-08-31T08:04:44.028Z,20.30
2022-08-31T08:07:12.073Z,20.30
2022-08-31T08:09:39.027Z,20.30
2022-08-31T08:12:07.762Z,20.30
2022-08-31T08:14:35.923Z,20.40
2022-08-31T08:17:03.577Z,20.30
2022-08-31T08:19:30.359Z,20.40
2022-08-31T08:21:57.092Z,20.40
2022-08-31T08:24:23.852Z,20.40
2022-08-31T08:26:54.278Z,20.40
2022-08-31T08:29:22.705Z,20.40
2022-08-31T08:31:50.221Z,20.40
2022-08-31T08:34:16.973Z,20.50
2022-08-31T08:36:43.671Z,20.50
2022-08-31T08:39:13.069Z,20.60
2022-08-31T08:41:42.667Z,20.60
2022-08-31T08:44:16.763Z,20.50
2022-08-31T08:46:50.805Z,20.60
2022-08-31T08:49:24.878Z,20.60
2022-08-31T08:51:56.451Z,20.60
2022-08-31T08:54:31.301Z,20.60
2022-08-31T08:56:59.228Z,20.60
2022-08-31T08:59:26.774Z,20.60
2022-08-31T09:01:56.567Z,20.60
2022-08-31T09:04:35.679Z,20.60
2022-08-31T09:07:17.374Z,20.60
2022-08-31T09:09:53.546Z,20.70
2022-08-31T09:12:30.823Z,20.70
2022-08-31T09:15:13.351Z,20.70
2022-08-31T09:17:48.954Z,20.70
2022-08-31T09:20:15.865Z,20.70
2022-08-31T09:22:44.889Z,20.80
2022-08-31T09:25:13.108Z,20.80
2022-08-31T09:27:43.744Z,20.80
2022-08-31T09:30:11.996Z,20.80
2022-08-31T09:32:38.707Z,20.90
2022-08-31T09:35:21.966Z,20.80
2022-08-31T09:37:58.671Z,20.80
2022-08-31T09:40:35.653Z,20.90
2022-08-31T09:43:05.161Z,20.90
2022-08-31T09:45:32.949Z,20.90
2022-08-31T09:47:59.723Z,20.90
2022-08-31T09:50:35.564Z,20.90
2022-08-31T09:53:16.706Z,20.90
2022-08-31T09:55:43.462Z,21.00
2022-08-31T09:58:10.223Z,21.00
2022-08-31T10:00:40.710Z,21.00
2022-08-31T10:03:12.122Z,21.00
2022-08-31T10:05:41.788Z,21.00
2022-08-31T10:08:28.529Z,21.00
2022-08-31T10:10:55.842Z,21.00
2022-08-31T10:13:29.222Z,21.00
2022-08-31T10:15:59.630Z,21.10
2022-08-31T10:18:32.578Z,21.10
2022-08-31T10:21:08.366Z,21.10
2022-08-31T10:23:39.416Z,21.10
2022-08-31T10:26:12.950Z,21.10
2022-08-31T10:28:44.641Z,21.10
2022-08-31T10:31:17.956Z,21.10
2022-08-31T10:33:55.127Z,21.20
2022-08-31T10:36:23.620Z,21.20
2022-08-31T10:38:52.646Z,21.20
2022-08-31T10:41:24.288Z,21.20
2022-08-31T10:43:58.644Z,21.20
2022-08-31T10:46:25.657Z,21.30
2022-08-31T10:48:52.585Z,21.30
2022-08-31T10:51:30.187Z,21.30
2022-08-31T10:54:10.522Z,21.30
2022-08-31T10:56:43.264Z,21.30
2022-08-31T10:59:22.068Z,21.30
2022-08-31T11:02:00.151Z,21.40
2022-08-31T11:04:48.156Z,21.40
2022-08-31T11:07:25.568Z,21.40
2022-08-31T11:10:02.975Z,21.40
2022-08-31T11:12:32.777Z,21.40
2022-08-31T11:15:21.512Z,21.40
2022-08-31T11:18:13.680Z,21.50
2022-08-31T11:20:58.821Z,21.50
2022-08-31T11:23:42.170Z,21.50
2022-08-31T11:26:44.029Z,21.50
2022-08-31T11:29:22.849Z,21.50
2022-08-31T11:31:50.626Z,21.50
2022-08-31T11:34:26.958Z,21.50
2022-08-31T11:36:56.188Z,21.40
2022-08-31T11:39:45.525Z,21.50
2022-08-31T11:42:28.666Z,21.50
2022-08-31T11:45:05.829Z,21.50
2022-08-31T11:47:38.883Z,21.50
2022-08-31T11:50:12.711Z,21.60
2022-08-31T11:52:45.243Z,21.50
2022-08-31T11:55:24.965Z,21.50
2022-08-31T11:58:25.508Z,21.50
2022-08-31T12:00:56.848Z,21.50
2022-08-31T12:03:46.281Z,21.50
2022-08-31T12:06:46.841Z,21.50
2022-08-31T12:09:32.339Z,21.50
2022-08-31T12:12:09.624Z,21.50
2022-08-31T12:14:42.314Z,21.60
2022-08-31T12:17:22.902Z,21.50
2022-08-31T12:20:00.967Z,21.40
2022-08-31T12:22:55.305Z,21.50
2022-08-31T12:25:31.189Z,21.50
2022-08-31T12:28:08.457Z,21.50
2022-08-31T12:30:35.316Z,21.40
2022-08-31T12:33:08.248Z,21.40
2022-08-31T12:35:37.407Z,21.40
2022-08-31T12:38:06.638Z,21.40
2022-08-31T12:40:35.544Z,21.40
2022-08-31T12:43:09.929Z,21.40
2022-08-31T12:45:56.310Z,21.40
2022-08-31T12:48:44.874Z,21.30
2022-08-31T12:51:18.667Z,21.30
2022-08-31T12:54:12.317Z,21.30
2022-08-31T12:56:49.510Z,21.30
2022-08-31T12:59:45.697Z,21.30
2022-08-31T13:02:16.596Z,21.20
2022-08-31T13:04:45.856Z,21.20
2022-08-31T13:07:15.043Z,21.20
2022-08-31T13:09:41.828Z,21.20
2022-08-31T13:12:08.534Z,21.20
2022-08-31T13:14:42.144Z,21.00
2022-08-31T13:17:14.127Z,21.10
2022-08-31T13:19:45.895Z,21.00
2022-08-31T13:22:13.250Z,21.00
2022-08-31T13:24:42.512Z,20.90
2022-08-31T13:27:21.189Z,20.90
2022-08-31T13:29:50.345Z,20.90
2022-08-31T13:32:30.012Z,20.90
2022-08-31T13:34:57.033Z,20.90
2022-08-31T13:37:27.157Z,20.80
2022-08-31T13:39:54.374Z,20.80
2022-08-31T13:42:33.173Z,20.80
2022-08-31T13:45:04.600Z,20.70
2022-08-31T13:47:33.553Z,20.60
2022-08-31T13:50:17.928Z,20.60
2022-08-31T13:53:04.133Z,20.60
2022-08-31T13:55:37.890Z,20.60
2022-08-31T13:58:06.620Z,20.60
2022-08-31T14:00:40.468Z,20.60
2022-08-31T14:03:30.342Z,20.50
2022-08-31T14:06:14.499Z,20.50
2022-08-31T14:08:41.211Z,20.40
2022-08-31T14:11:11.687Z,20.50
2022-08-31T14:13:46.716Z,20.40
2022-08-31T14:16:20.242Z,20.40
2022-08-31T14:18:53.723Z,20.40
2022-08-31T14:21:25.626Z,20.40
2022-08-31T14:23:54.200Z,20.40
2022-08-31T14:26:22.673Z,20.40
2022-08-31T14:28:51.928Z,20.40
2022-08-31T14:31:24.658Z,20.40
2022-08-31T14:34:07.819Z,20.40
2022-08-31T14:36:36.752Z,20.30
2022-08-31T14:39:03.714Z,20.30
2022-08-31T14:41:32.024Z,20.30
2022-08-31T14:44:01.936Z,20.30
2022-08-31T14:46:30.053Z,20.30
2022-08-31T14:48:56.829Z,20.30
2022-08-31T14:51:24.625Z,20.30
2022-08-31T14:53:53.133Z,20.30
2022-08-31T14:56:19.909Z,20.30
2022-08-31T14:58:47.085Z,20.30
2022-08-31T15:01:13.907Z,20.30
2022-08-31T15:03:42.697Z,20.30
2022-08-31T15:06:09.606Z,20.30
2022-08-31T15:08:38.267Z,20.30
2022-08-31T15:11:06.451Z,20.30
2022-08-31T15:13:33.479Z,20.30
2022-08-31T15:16:01.033Z,20.30
2022-08-31T15:18:27.812Z,20.30
2022-08-31T15:20:56.020Z,20.20
2022-08-31T15:23:22.829Z,20.20
2022-08-31T15:25:49.673Z,20.30
2022-08-31T15:28:16.442Z,20.20
2022-08-31T15:30:43.217Z,20.20
2022-08-31T15:33:09.973Z,20.20
2022-08-31T15:35:36.781Z,20.20
2022-08-31T15:38:04.928Z,20.20
2022-08-31T15:40:37.726Z,20.20
2022-08-31T15:43:06.077Z,20.20
2022-08-31T15:45:32.886Z,20.20
2022-08-31T15:47:59.641Z,20.20
2022-08-31T15:50:31.377Z,20.20
2022-08-31T15:53:05.212Z,20.10
2022-08-31T15:55:37.492Z,20.10
2022-08-31T15:58:04.261Z,20.20
2022-08-31T16:00:31.231Z,20.20
2022-08-31T16:02:58.591Z,20.10
2022-08-31T16:05:26.939Z,20.20
2022-08-31T16:07:54.075Z,20.10
2022-08-31T16:10:21.118Z,20.20
2022-08-31T16:12:49.491Z,20.10
2022-08-31T16:15:16.954Z,20.10
2022-08-31T16:17:43.966Z,20.10
2022-08-31T16:20:12.714Z,20.10
2022-08-31T16:22:40.808Z,20.10
2022-08-31T16:25:08.750Z,20.10
2022-08-31T16:27:35.629Z,20.10
2022-08-31T16:30:04.680Z,20.10
2022-08-31T16:32:31.470Z,20.10
2022-08-31T16:34:58.295Z,20.10
2022-08-31T16:37:25.519Z,20.10
2022-08-31T16:39:52.503Z,20.10
2022-08-31T16:42:19.453Z,20.10
2022-08-31T16:44:46.567Z,20.10
2022-08-31T16:47:16.637Z,20.10
2022-08-31T16:49:43.477Z,20.10
2022-08-31T16:52:12.807Z,20.00
2022-08-31T16:54:41.038Z,20.00
2022-08-31T16:57:08.064Z,20.00
2022-08-31T16:59:34.928Z,20.10
2022-08-31T17:02:01.906Z,20.00
2022-08-31T17:04:50.873Z,20.00
2022-08-31T17:07:18.380Z,20.00
2022-08-31T17:09:45.367Z,20.00
2022-08-31T17:12:14.352Z,20.00
2022-08-31T17:14:44.063Z,20.00
2022-08-31T17:17:13.081Z,19.90
2022-08-31T17:19:42.802Z,19.90
2022-08-31T17:22:12.652Z,19.90
2022-08-31T17:24:41.492Z,19.90
2022-08-31T17:27:09.310Z,19.90
2022-08-31T17:29:43.752Z,19.90
2022-08-31T17:32:13.720Z,19.90
2022-08-31T17:34:42.529Z,19.90
2022-08-31T17:37:11.765Z,19.90
2022-08-31T17:39:38.789Z,19.90
2022-08-31T17:42:06.140Z,19.90
2022-08-31T17:44:32.977Z,19.90
2022-08-31T17:47:02.312Z,19.90
2022-08-31T17:49:31.088Z,19.80
2022-08-31T17:52:06.408Z,19.80
2022-08-31T17:54:34.184Z,19.80
2022-08-31T17:57:03.357Z,19.80
2022-08-31T17:59:33.359Z,19.80
2022-08-31T18:02:03.181Z,19.70
2022-08-31T18:04:30.986Z,19.70
2022-08-31T18:06:58.253Z,19.70
2022-08-31T18:09:29.268Z,19.70
2022-08-31T18:11:56.753Z,19.60
2022-08-31T18:14:26.227Z,19.60
2022-08-31T18:16:54.485Z,19.60
2022-08-31T18:19:27.882Z,19.60
2022-08-31T18:21:55.328Z,19.60
2022-08-31T18:24:22.367Z,19.60
2022-08-31T18:26:52.046Z,19.60
2022-08-31T18:29:24.409Z,19.60
2022-08-31T18:31:52.132Z,19.60
2022-08-31T18:34:21.430Z,19.60
2022-08-31T18:36:49.188Z,19.60
2022-08-31T18:39:34.469Z,19.60
2022-08-31T18:42:07.265Z,19.50
2022-08-31T18:44:34.779Z,19.50
2022-08-31T18:47:03.809Z,19.60
2022-08-31T18:49:30.801Z,19.60
2022-08-31T18:51:57.641Z,19.50
2022-08-31T18:54:24.768Z,19.50
2022-08-31T18:56:51.578Z,19.50
2022-08-31T18:59:19.935Z,19.50
2022-08-31T19:01:47.329Z,19.50
2022-08-31T19:04:17.570Z,19.50
2022-08-31T19:06:46.744Z,19.50
2022-08-31T19:09:13.748Z,19.50
2022-08-31T19:11:41.922Z,19.50
2022-08-31T19:14:09.910Z,19.40
2022-08-31T19:16:38.192Z,19.40
2022-08-31T19:19:05.137Z,19.40
2022-08-31T19:21:33.585Z,19.40
2022-08-31T19:24:01.849Z,19.40
2022-08-31T19:26:30.902Z,19.40
2022-08-31T19:28:58.876Z,19.40
2022-08-31T19:31:27.653Z,19.40
2022-08-31T19:33:57.205Z,19.40
2022-08-31T19:36:24.520Z,19.40
2022-08-31T19:38:51.778Z,19.40
2022-08-31T19:41:22.627Z,19.40
2022-08-31T19:43:56.144Z,19.30
2022-08-31T19:46:32.699Z,19.30
2022-08-31T19:49:01.195Z,19.30
2022-08-31T19:51:29.649Z,19.30
2022-08-31T19:53:56.709Z,19.20
2022-08-31T19:56:25.333Z,19.20
2022-08-31T19:58:53.437Z,19.20
2022-08-31T20:01:22.827Z,19.30
2022-08-31T20:03:50.096Z,19.20
2022-08-31T20:06:20.685Z,19.30
2022-08-31T20:08:49.177Z,19.30
2022-08-31T20:11:21.692Z,19.30
2022-08-31T20:13:49.074Z,19.20
2022-08-31T20:16:16.432Z,19.20
2022-08-31T20:18:43.414Z,19.20
2022-08-31T20:21:12.214Z,19.20
2022-08-31T20:23:41.775Z,19.20
2022-08-31T20:26:08.604Z,19.20
2022-08-31T20:28:35.397Z,19.10
2022-08-31T20:31:06.215Z,19.20
2022-08-31T20:33:33.484Z,19.20
2022-08-31T20:36:00.378Z,19.20
2022-08-31T20:38:27.561Z,19.10
2022-08-31T20:40:55.763Z,19.00
2022-08-31T20:43:23.648Z,19.00
2022-08-31T20:45:50.737Z,18.90
2022-08-31T20:48:17.536Z,19.00
2022-08-31T20:50:48.929Z,19.00
2022-08-31T20:53:16.732Z,19.00
2022-08-31T20:55:49.310Z,18.90
2022-08-31T20:58:17.484Z,18.90
2022-08-31T21:00:44.395Z,18.90
2022-08-31T21:03:11.601Z,18.90
2022-08-31T21:05:39.321Z,18.90
2022-08-31T21:08:06.347Z,18.90
2022-08-31T21:10:37.596Z,19.00
2022-08-31T21:13:06.494Z,19.00
2022-08-31T21:15:34.804Z,19.00
2022-08-31T21:18:01.678Z,18.90
2022-08-31T21:20:28.464Z,18.90
2022-08-31T21:22:55.209Z,18.90
2022-08-31T21:25:22.033Z,18.90
2022-08-31T21:27:48.785Z,18.90
2022-08-31T21:30:15.850Z,19.00
2022-08-31T21:32:44.373Z,18.90
2022-08-31T21:35:12.736Z,18.90
2022-08-31T21:37:39.525Z,18.90
2022-08-31T21:40:07.442Z,19.00
2022-08-31T21:42:34.260Z,18.90
2022-08-31T21:45:01.029Z,18.90
2022-08-31T21:47:27.845Z,18.90
2022-08-31T21:49:55.944Z,19.00
2022-08-31T21:52:22.773Z,18.90
2022-08-31T21:54:49.541Z,18.90
2022-08-31T21:57:16.320Z,18.80
2022-08-31T21:59:43.124Z,18.70
2022-08-31T22:02:11.850Z,18.70
2022-08-31T22:04:40.757Z,18.80
2022-08-31T22:07:09.719Z,18.80
2022-08-31T22:09:37.272Z,18.80
2022-08-31T22:12:05.173Z,18.80
2022-08-31T22:14:33.064Z,18.80
2022-08-31T22:17:00.519Z,18.80
2022-08-31T22:19:27.641Z,18.80
2022-08-31T22:21:57.819Z,18.90
2022-08-31T22:24:28.243Z,18.90
2022-08-31T22:26:57.666Z,19.00
2022-08-31T22:29:27.480Z,18.80
2022-08-31T22:31:57.829Z,18.90
2022-08-31T22:34:25.295Z,18.90
2022-08-31T22:36:53.356Z,18.80
2022-08-31T22:39:22.855Z,18.70
2022-08-31T22:41:51.908Z,18.80
2022-08-31T22:44:21.422Z,18.80
2022-08-31T22:46:48.634Z,18.90
2022-08-31T22:49:15.756Z,18.80
2022-08-31T22:51:43.602Z,18.80
2022-08-31T22:54:10.918Z,18.90
2022-08-31T22:56:39.066Z,18.90
2022-08-31T22:59:10.027Z,18.90
2022-08-31T23:01:39.394Z,18.90
2022-08-31T23:04:08.234Z,18.90
2022-08-31T23:06:37.166Z,18.90
2022-08-31T23:09:05.456Z,18.90
2022-08-31T23:11:32.207Z,18.90
2022-08-31T23:14:02.830Z,18.90
2022-08-31T23:16:35.636Z,18.60
2022-08-31T23:19:06.312Z,18.70
2022-08-31T23:21:33.877Z,18.70
2022-08-31T23:24:01.855Z,18.60
2022-08-31T23:26:30.338Z,18.60
2022-08-31T23:28:58.783Z,18.60
2022-08-31T23:31:26.740Z,18.60
2022-08-31T23:33:55.008Z,18.70
2022-08-31T23:36:22.852Z,18.80
2022-08-31T23:38:49.591Z,18.80
2022-08-31T23:41:17.262Z,18.70
2022-08-31T23:43:44.364Z,18.80
2022-08-31T23:46:11.197Z,18.80
2022-08-31T23:48:37.950Z,18.80
2022-08-31T23:51:07.692Z,18.80
2022-08-31T23:53:34.476Z,18.80
2022-08-31T23:56:01.360Z,18.80
2022-08-31T23:58:28.124Z,18.80
